sensor_id;sensor_type;location;lat;lon;timestamp;pressure;altitude;pressure_sealevel;temperature;humidity
62418;BME280;48456;54.242;10.280;2022-09-13T00:02:08;100677.16;;;16.09;100.00
62418;BME280;48456;54.242;10.280;2022-09-13T00:04:34;100686.00;;;16.10;100.00
62418;BME280;48456;54.242;10.280;2022-09-13T00:07:01;100676.41;;;16.04;100.00
62418;BME280;48456;54.242;10.280;2022-09-13T00:09:27;100695.13;;;16.03;100.00
62418;BME280;48456;54.242;10.280;2022-09-13T00:11:53;100690.97;;;15.91;100.00
62418;BME280;48456;54.242;10.280;2022-09-13T00:14:19;100696.75;;;15.75;100.00
62418;BME280;48456;54.242;10.280;2022-09-13T00:16:46;100690.13;;;15.57;100.00
62418;BME280;48456;54.242;10.280;2022-09-13T00:19:12;100674.53;;;15.41;100.00
62418;BME280;48456;54.242;10.280;2022-09-13T00:21:38;100659.69;;;15.32;100.00
62418;BME280;48456;54.242;10.280;2022-09-13T00:24:05;100650.19;;;15.20;100.00
62418;BME280;48456;54.242;10.280;2022-09-13T00:26:31;100645.16;;;15.10;100.00
62418;BME280;48456;54.242;10.280;2022-09-13T00:28:57;100627.69;;;14.99;100.00
62418;BME280;48456;54.242;10.280;2022-09-13T00:31:24;100627.03;;;14.89;100.00
62418;BME280;48456;54.242;10.280;2022-09-13T00:33:52;100625.41;;;14.82;100.00
62418;BME280;48456;54.242;10.280;2022-09-13T00:36:19;100622.03;;;14.74;100.00
62418;BME280;48456;54.242;10.280;2022-09-13T00:38:45;100634.63;;;14.67;100.00
62418;BME280;48456;54.242;10.280;2022-09-13T00:41:13;100643.66;;;14.61;100.00
62418;BME280;48456;54.242;10.280;2022-09-13T00:46:12;100645.66;;;14.51;100.00
62418;BME280;48456;54.242;10.280;2022-09-13T00:48:40;100644.88;;;14.46;100.00
62418;BME280;48456;54.242;10.280;2022-09-13T00:51:07;100659.13;;;14.43;100.00
62418;BME280;48456;54.242;10.280;2022-09-13T00:53:35;100659.13;;;14.43;100.00
62418;BME280;48456;54.242;10.280;2022-09-13T00:56:08;100656.56;;;14.40;100.00
62418;BME280;48456;54.242;10.280;2022-09-13T00:58:43;100635.25;;;14.40;100.00
62418;BME280;48456;54.242;10.280;2022-09-13T01:01:11;100636.25;;;14.36;100.00
62418;BME280;48456;54.242;10.280;2022-09-13T01:03:38;100645.06;;;14.38;100.00
62418;BME280;48456;54.242;10.280;2022-09-13T01:06:07;100642.41;;;14.37;100.00
62418;BME280;48456;54.242;10.280;2022-09-13T01:08:35;100634.47;;;14.35;100.00
62418;BME280;48456;54.242;10.280;2022-09-13T01:11:02;100640.69;;;14.36;100.00
62418;BME280;48456;54.242;10.280;2022-09-13T01:13:32;100624.75;;;14.34;100.00
62418;BME280;48456;54.242;10.280;2022-09-13T01:15:59;100619.44;;;14.33;100.00
62418;BME280;48456;54.242;10.280;2022-09-13T01:18:25;100610.63;;;14.32;100.00
62418;BME280;48456;54.242;10.280;2022-09-13T01:23:55;100600.03;;;14.29;100.00
62418;BME280;48456;54.242;10.280;2022-09-13T01:29:20;100597.31;;;14.32;100.00
62418;BME280;48456;54.242;10.280;2022-09-13T01:31:56;100595.50;;;14.33;100.00
62418;BME280;48456;54.242;10.280;2022-09-13T01:34:45;100583.09;;;14.33;100.00
62418;BME280;48456;54.242;10.280;2022-09-13T01:42:33;100569.75;;;14.35;100.00
62418;BME280;48456;54.242;10.280;2022-09-13T01:50:25;100569.78;;;14.33;100.00
62418;BME280;48456;54.242;10.280;2022-09-13T02:00:43;100557.53;;;14.26;100.00
62418;BME280;48456;54.242;10.280;2022-09-13T02:03:18;100564.59;;;14.27;100.00
62418;BME280;48456;54.242;10.280;2022-09-13T02:05:47;100563.75;;;14.26;100.00
62418;BME280;48456;54.242;10.280;2022-09-13T02:08:18;100562.81;;;14.27;100.00
62418;BME280;48456;54.242;10.280;2022-09-13T02:10:50;100559.34;;;14.25;100.00
62418;BME280;48456;54.242;10.280;2022-09-13T02:13:24;100550.50;;;14.23;100.00
62418;BME280;48456;54.242;10.280;2022-09-13T02:15:53;100545.19;;;14.23;100.00
62418;BME280;48456;54.242;10.280;2022-09-13T02:18:34;100533.66;;;14.23;100.00
62418;BME280;48456;54.242;10.280;2022-09-13T02:21:06;100542.53;;;14.23;100.00
62418;BME280;48456;54.242;10.280;2022-09-13T02:23:40;100531.88;;;14.23;100.00
62418;BME280;48456;54.242;10.280;2022-09-13T02:26:08;100532.78;;;14.24;100.00
62418;BME280;48456;54.242;10.280;2022-09-13T02:28:38;100525.63;;;14.24;100.00
62418;BME280;48456;54.242;10.280;2022-09-13T02:31:07;100521.22;;;14.25;100.00
62418;BME280;48456;54.242;10.280;2022-09-13T02:33:43;100510.53;;;14.26;100.00
62418;BME280;48456;54.242;10.280;2022-09-13T02:36:16;100511.38;;;14.27;100.00
62418;BME280;48456;54.242;10.280;2022-09-13T02:41:18;100503.38;;;14.28;100.00
62418;BME280;48456;54.242;10.280;2022-09-13T02:43:50;100495.34;;;14.30;100.00
62418;BME280;48456;54.242;10.280;2022-09-13T02:46:43;100496.25;;;14.31;100.00
62418;BME280;48456;54.242;10.280;2022-09-13T02:49:16;100504.22;;;14.31;100.00
62418;BME280;48456;54.242;10.280;2022-09-13T02:54:26;100510.34;;;14.34;100.00
62418;BME280;48456;54.242;10.280;2022-09-13T02:57:00;100501.59;;;14.29;100.00
62418;BME280;48456;54.242;10.280;2022-09-13T02:59:30;100504.47;;;14.21;100.00
62418;BME280;48456;54.242;10.280;2022-09-13T03:02:02;100499.31;;;14.13;100.00
62418;BME280;48456;54.242;10.280;2022-09-13T03:04:29;100498.47;;;14.11;100.00
62418;BME280;48456;54.242;10.280;2022-09-13T03:06:56;100497.59;;;14.11;100.00
62418;BME280;48456;54.242;10.280;2022-09-13T03:09:22;100498.53;;;14.08;100.00
62418;BME280;48456;54.242;10.280;2022-09-13T03:11:53;100491.50;;;14.06;100.00
62418;BME280;48456;54.242;10.280;2022-09-13T03:15:05;100475.66;;;14.01;100.00
62418;BME280;48456;54.242;10.280;2022-09-13T03:25:17;100490.91;;;13.93;100.00
62418;BME280;48456;54.242;10.280;2022-09-13T03:30:11;100497.06;;;13.96;100.00
62418;BME280;48456;54.242;10.280;2022-09-13T03:35:12;100486.38;;;13.98;100.00
62418;BME280;48456;54.242;10.280;2022-09-13T03:38:03;100494.41;;;13.96;100.00
62418;BME280;48456;54.242;10.280;2022-09-13T03:45:27;100473.09;;;13.98;100.00
62418;BME280;48456;54.242;10.280;2022-09-13T03:47:56;100473.03;;;13.99;100.00
62418;BME280;48456;54.242;10.280;2022-09-13T03:50:23;100481.00;;;13.99;100.00
62418;BME280;48456;54.242;10.280;2022-09-13T03:52:52;100472.16;;;14.00;100.00
62418;BME280;48456;54.242;10.280;2022-09-13T03:55:20;100465.94;;;14.00;100.00
62418;BME280;48456;54.242;10.280;2022-09-13T03:57:47;100478.31;;;14.01;100.00
62418;BME280;48456;54.242;10.280;2022-09-13T04:00:13;100473.00;;;14.01;100.00
62418;BME280;48456;54.242;10.280;2022-09-13T04:02:40;100462.31;;;14.02;100.00
62418;BME280;48456;54.242;10.280;2022-09-13T04:05:06;100475.69;;;13.99;100.00
62418;BME280;48456;54.242;10.280;2022-09-13T04:07:33;100473.00;;;14.01;100.00
62418;BME280;48456;54.242;10.280;2022-09-13T04:09:59;100473.00;;;14.01;100.00
62418;BME280;48456;54.242;10.280;2022-09-13T04:12:26;100468.53;;;14.03;100.00
62418;BME280;48456;54.242;10.280;2022-09-13T04:14:56;100465.03;;;14.01;100.00
62418;BME280;48456;54.242;10.280;2022-09-13T04:17:23;100465.88;;;14.03;100.00
62418;BME280;48456;54.242;10.280;2022-09-13T04:19:49;100465.03;;;14.01;100.00
62418;BME280;48456;54.242;10.280;2022-09-13T04:22:15;100450.78;;;14.03;100.00
62418;BME280;48456;54.242;10.280;2022-09-13T04:24:42;100444.63;;;14.01;100.00
62418;BME280;48456;54.242;10.280;2022-09-13T04:27:09;100460.59;;;14.01;100.00
62418;BME280;48456;54.242;10.280;2022-09-13T04:29:35;100456.97;;;14.04;100.00
62418;BME280;48456;54.242;10.280;2022-09-13T04:32:01;100472.88;;;14.07;100.00
62418;BME280;48456;54.242;10.280;2022-09-13T04:34:31;100470.19;;;14.09;100.00
62418;BME280;48456;54.242;10.280;2022-09-13T04:36:57;100463.91;;;14.11;100.00
62418;BME280;48456;54.242;10.280;2022-09-13T04:39:24;100459.41;;;14.13;100.00
62418;BME280;48456;54.242;10.280;2022-09-13T04:41:50;100459.38;;;14.15;100.00
62418;BME280;48456;54.242;10.280;2022-09-13T04:44:17;100459.34;;;14.16;100.00
62418;BME280;48456;54.242;10.280;2022-09-13T04:46:45;100466.38;;;14.19;100.00
62418;BME280;48456;54.242;10.280;2022-09-13T04:49:13;100464.50;;;14.23;100.00
62418;BME280;48456;54.242;10.280;2022-09-13T04:51:40;100469.75;;;14.26;100.00
62418;BME280;48456;54.242;10.280;2022-09-13T04:54:07;100468.78;;;14.28;100.00
62418;BME280;48456;54.242;10.280;2022-09-13T04:56:40;100473.16;;;14.31;100.00
62418;BME280;48456;54.242;10.280;2022-09-13T04:59:07;100476.66;;;14.33;100.00
62418;BME280;48456;54.242;10.280;2022-09-13T05:01:33;100482.81;;;14.35;100.00
62418;BME280;48456;54.242;10.280;2022-09-13T05:04:00;100490.72;;;14.38;100.00
62418;BME280;48456;54.242;10.280;2022-09-13T05:06:26;100492.44;;;14.41;100.00
62418;BME280;48456;54.242;10.280;2022-09-13T05:08:54;100494.19;;;14.42;100.00
62418;BME280;48456;54.242;10.280;2022-09-13T05:11:21;100503.94;;;14.41;100.00
62418;BME280;48456;54.242;10.280;2022-09-13T05:13:48;100495.94;;;14.43;100.00
62418;BME280;48456;54.242;10.280;2022-09-13T05:16:18;100490.69;;;14.40;100.00
62418;BME280;48456;54.242;10.280;2022-09-13T05:18:44;100488.13;;;14.35;100.00
62418;BME280;48456;54.242;10.280;2022-09-13T05:21:10;100489.06;;;14.34;100.00
62418;BME280;48456;54.242;10.280;2022-09-13T05:23:37;100490.88;;;14.32;100.00
62418;BME280;48456;54.242;10.280;2022-09-13T05:26:04;100490.09;;;14.27;100.00
62418;BME280;48456;54.242;10.280;2022-09-13T05:28:31;100499.03;;;14.24;100.00
62418;BME280;48456;54.242;10.280;2022-09-13T05:33:28;100496.38;;;14.24;100.00
62418;BME280;48456;54.242;10.280;2022-09-13T05:35:55;100499.97;;;14.23;100.00
62418;BME280;48456;54.242;10.280;2022-09-13T05:38:21;100505.25;;;14.25;100.00
62418;BME280;48456;54.242;10.280;2022-09-13T05:40:52;100506.06;;;14.27;100.00
62418;BME280;48456;54.242;10.280;2022-09-13T05:43:20;100514.03;;;14.27;100.00
62418;BME280;48456;54.242;10.280;2022-09-13T05:45:46;100514.03;;;14.27;100.00
62418;BME280;48456;54.242;10.280;2022-09-13T05:48:13;100525.53;;;14.29;100.00
62418;BME280;48456;54.242;10.280;2022-09-13T05:50:39;100517.56;;;14.29;100.00
62418;BME280;48456;54.242;10.280;2022-09-13T05:53:25;100512.19;;;14.32;100.00
62418;BME280;48456;54.242;10.280;2022-09-13T05:55:52;100512.97;;;14.36;100.00
62418;BME280;48456;54.242;10.280;2022-09-13T05:58:18;100512.00;;;14.38;100.00
62418;BME280;48456;54.242;10.280;2022-09-13T06:00:44;100500.44;;;14.39;100.00
62418;BME280;48456;54.242;10.280;2022-09-13T06:03:11;100505.69;;;14.42;100.00
62418;BME280;48456;54.242;10.280;2022-09-13T06:05:37;100505.63;;;14.46;100.00
62418;BME280;48456;54.242;10.280;2022-09-13T06:08:03;100504.66;;;14.48;100.00
62418;BME280;48456;54.242;10.280;2022-09-13T06:10:29;100507.31;;;14.50;100.00
62418;BME280;48456;54.242;10.280;2022-09-13T06:12:56;100514.44;;;14.48;100.00
62418;BME280;48456;54.242;10.280;2022-09-13T06:15:22;100520.81;;;14.42;100.00
62418;BME280;48456;54.242;10.280;2022-09-13T06:17:48;100520.00;;;14.38;100.00
62418;BME280;48456;54.242;10.280;2022-09-13T06:20:15;100521.84;;;14.36;100.00
62418;BME280;48456;54.242;10.280;2022-09-13T06:22:41;100523.56;;;14.37;100.00
62418;BME280;48456;54.242;10.280;2022-09-13T06:25:07;100530.63;;;14.38;100.00
62418;BME280;48456;54.242;10.280;2022-09-13T06:27:34;100521.72;;;14.39;100.00
62418;BME280;48456;54.242;10.280;2022-09-13T06:30:00;100519.97;;;14.40;100.00
62418;BME280;48456;54.242;10.280;2022-09-13T06:32:27;100525.31;;;14.38;100.00
62418;BME280;48456;54.242;10.280;2022-09-13T06:34:53;100525.28;;;14.40;100.00
62418;BME280;48456;54.242;10.280;2022-09-13T06:37:19;100524.28;;;14.44;100.00
62418;BME280;48456;54.242;10.280;2022-09-13T06:39:47;100522.25;;;14.55;100.00
62418;BME280;48456;54.242;10.280;2022-09-13T06:42:13;100532.56;;;14.68;100.00
62418;BME280;48456;54.242;10.280;2022-09-13T06:44:40;100528.75;;;14.80;100.00
62418;BME280;48456;54.242;10.280;2022-09-13T06:47:06;100527.50;;;14.93;100.00
62418;BME280;48456;54.242;10.280;2022-09-13T06:49:32;100525.28;;;15.10;100.00
62418;BME280;48456;54.242;10.280;2022-09-13T06:51:58;100527.63;;;15.20;100.00
62418;BME280;48456;54.242;10.280;2022-09-13T06:54:25;100529.22;;;15.28;100.00
62418;BME280;48456;54.242;10.280;2022-09-13T06:56:51;100524.09;;;15.22;100.00
62418;BME280;48456;54.242;10.280;2022-09-13T06:59:17;100521.53;;;15.17;100.00
62418;BME280;48456;54.242;10.280;2022-09-13T07:01:44;100518.75;;;15.22;100.00
62418;BME280;48456;54.242;10.280;2022-09-13T07:04:11;100523.66;;;15.36;100.00
62418;BME280;48456;54.242;10.280;2022-09-13T07:06:39;100527.91;;;15.43;100.00
62418;BME280;48456;54.242;10.280;2022-09-13T07:09:06;100523.50;;;15.42;100.00
62418;BME280;48456;54.242;10.280;2022-09-13T07:11:35;100518.41;;;15.34;100.00
62418;BME280;48456;54.242;10.280;2022-09-13T07:14:01;100519.44;;;15.28;100.00
62418;BME280;48456;54.242;10.280;2022-09-13T07:16:29;100513.44;;;15.22;100.00
62418;BME280;48456;54.242;10.280;2022-09-13T07:19:00;100517.84;;;15.23;100.00
62418;BME280;48456;54.242;10.280;2022-09-13T07:21:27;100525.50;;;15.33;100.00
62418;BME280;48456;54.242;10.280;2022-09-13T07:23:54;100516.41;;;15.42;100.00
62418;BME280;48456;54.242;10.280;2022-09-13T07:26:20;100517.72;;;15.57;100.00
62418;BME280;48456;54.242;10.280;2022-09-13T07:28:48;100512.03;;;15.70;100.00
62418;BME280;48456;54.242;10.280;2022-09-13T07:31:18;100511.75;;;15.79;100.00
62418;BME280;48456;54.242;10.280;2022-09-13T07:33:46;100509.56;;;15.92;100.00
62418;BME280;48456;54.242;10.280;2022-09-13T07:36:13;100516.56;;;15.96;100.00
62418;BME280;48456;54.242;10.280;2022-09-13T07:38:40;100508.47;;;16.00;100.00
62418;BME280;48456;54.242;10.280;2022-09-13T07:41:09;100520.84;;;16.02;100.00
62418;BME280;48456;54.242;10.280;2022-09-13T07:43:36;100521.00;;;15.97;100.00
62418;BME280;48456;54.242;10.280;2022-09-13T07:46:07;100523.41;;;16.05;100.00
62418;BME280;48456;54.242;10.280;2022-09-13T07:48:34;100526.66;;;16.15;100.00
62418;BME280;48456;54.242;10.280;2022-09-13T07:51:02;100524.47;;;16.28;100.00
62418;BME280;48456;54.242;10.280;2022-09-13T07:53:29;100529.41;;;16.41;100.00
62418;BME280;48456;54.242;10.280;2022-09-13T07:55:59;100531.88;;;16.47;100.00
62418;BME280;48456;54.242;10.280;2022-09-13T07:58:26;100523.88;;;16.47;100.00
62418;BME280;48456;54.242;10.280;2022-09-13T08:00:53;100525.34;;;16.56;100.00
62418;BME280;48456;54.242;10.280;2022-09-13T08:03:19;100526.84;;;16.65;100.00
62418;BME280;48456;54.242;10.280;2022-09-13T08:05:46;100524.88;;;16.70;100.00
62418;BME280;48456;54.242;10.280;2022-09-13T08:08:12;100523.78;;;16.75;100.00
62418;BME280;48456;54.242;10.280;2022-09-13T08:10:39;100533.28;;;16.84;100.00
62418;BME280;48456;54.242;10.280;2022-09-13T08:13:05;100532.78;;;16.98;100.00
62418;BME280;48456;54.242;10.280;2022-09-13T08:15:31;100534.47;;;17.01;100.00
62418;BME280;48456;54.242;10.280;2022-09-13T08:17:58;100537.47;;;16.92;100.00
62418;BME280;48456;54.242;10.280;2022-09-13T08:20:25;100541.22;;;16.86;100.00
62418;BME280;48456;54.242;10.280;2022-09-13T08:22:51;100532.09;;;16.93;100.00
62418;BME280;48456;54.242;10.280;2022-09-13T08:25:17;100532.63;;;17.05;100.00
62418;BME280;48456;54.242;10.280;2022-09-13T08:27:43;100531.25;;;17.18;100.00
62418;BME280;48456;54.242;10.280;2022-09-13T08:30:10;100532.47;;;17.33;100.00
62418;BME280;48456;54.242;10.280;2022-09-13T08:32:36;100536.31;;;17.50;100.00
62418;BME280;48456;54.242;10.280;2022-09-13T08:35:03;100536.59;;;17.66;100.00
62418;BME280;48456;54.242;10.280;2022-09-13T08:37:30;100528.78;;;17.84;100.00
62418;BME280;48456;54.242;10.280;2022-09-13T08:39:56;100534.59;;;18.19;100.00
62418;BME280;48456;54.242;10.280;2022-09-13T08:44:55;100531.69;;;18.46;100.00
62418;BME280;48456;54.242;10.280;2022-09-13T08:47:26;100534.16;;;18.51;100.00
62418;BME280;48456;54.242;10.280;2022-09-13T08:50:13;100540.47;;;18.50;100.00
62418;BME280;48456;54.242;10.280;2022-09-13T08:52:47;100544.94;;;18.28;100.00
62418;BME280;48456;54.242;10.280;2022-09-13T08:55:20;100537.44;;;18.14;100.00
62418;BME280;48456;54.242;10.280;2022-09-13T08:57:53;100540.06;;;18.16;100.00
62418;BME280;48456;54.242;10.280;2022-09-13T09:00:33;100553.13;;;18.24;100.00
62418;BME280;48456;54.242;10.280;2022-09-13T09:05:48;100532.09;;;17.90;100.00
62418;BME280;48456;54.242;10.280;2022-09-13T09:08:19;100540.50;;;17.81;100.00
62418;BME280;48456;54.242;10.280;2022-09-13T09:10:50;100527.00;;;17.84;100.00
62418;BME280;48456;54.242;10.280;2022-09-13T09:13:28;100526.75;;;17.90;100.00
62418;BME280;48456;54.242;10.280;2022-09-13T09:16:00;100536.34;;;17.96;100.00
62418;BME280;48456;54.242;10.280;2022-09-13T09:18:31;100536.72;;;18.11;100.00
62418;BME280;48456;54.242;10.280;2022-09-13T09:20:59;100529.09;;;18.22;100.00
62418;BME280;48456;54.242;10.280;2022-09-13T09:28:40;100541.25;;;18.09;100.00
62418;BME280;48456;54.242;10.280;2022-09-13T09:31:14;100537.44;;;18.37;100.00
62418;BME280;48456;54.242;10.280;2022-09-13T09:33:48;100529.47;;;18.57;100.00
62418;BME280;48456;54.242;10.280;2022-09-13T09:38:42;100544.38;;;19.06;100.00
62418;BME280;48456;54.242;10.280;2022-09-13T09:41:11;100543.75;;;19.20;100.00
62418;BME280;48456;54.242;10.280;2022-09-13T09:43:47;100532.25;;;19.38;100.00
62418;BME280;48456;54.242;10.280;2022-09-13T09:46:18;100525.81;;;19.61;100.00
62418;BME280;48456;54.242;10.280;2022-09-13T09:48:47;100536.28;;;19.67;100.00
62418;BME280;48456;54.242;10.280;2022-09-13T09:51:16;100536.16;;;19.70;100.00
62418;BME280;48456;54.242;10.280;2022-09-13T09:53:46;100537.63;;;19.38;100.00
62418;BME280;48456;54.242;10.280;2022-09-13T09:56:19;100538.94;;;19.08;100.00
62418;BME280;48456;54.242;10.280;2022-09-13T09:58:46;100538.50;;;18.76;100.00
62418;BME280;48456;54.242;10.280;2022-09-13T10:01:18;100538.63;;;18.52;100.00
62418;BME280;48456;54.242;10.280;2022-09-13T10:03:49;100534.34;;;18.25;100.00
62418;BME280;48456;54.242;10.280;2022-09-13T10:06:19;100527.66;;;18.36;100.00
62418;BME280;48456;54.242;10.280;2022-09-13T10:08:48;100536.28;;;18.42;100.00
62418;BME280;48456;54.242;10.280;2022-09-13T10:11:20;100530.59;;;18.52;100.00
62418;BME280;48456;54.242;10.280;2022-09-13T10:13:57;100537.41;;;18.59;100.00
62418;BME280;48456;54.242;10.280;2022-09-13T10:16:25;100529.00;;;18.68;100.00
62418;BME280;48456;54.242;10.280;2022-09-13T10:18:53;100521.69;;;18.72;100.00
62418;BME280;48456;54.242;10.280;2022-09-13T10:21:24;100523.25;;;18.78;100.00
62418;BME280;48456;54.242;10.280;2022-09-13T10:23:52;100531.53;;;18.92;100.00
62418;BME280;48456;54.242;10.280;2022-09-13T10:26:38;100517.56;;;19.06;100.00
62418;BME280;48456;54.242;10.280;2022-09-13T10:29:05;100510.09;;;19.13;100.00
62418;BME280;48456;54.242;10.280;2022-09-13T10:31:34;100508.91;;;19.20;100.00
62418;BME280;48456;54.242;10.280;2022-09-13T10:34:02;100501.72;;;19.40;100.00
62418;BME280;48456;54.242;10.280;2022-09-13T10:36:30;100499.16;;;19.39;100.00
62418;BME280;48456;54.242;10.280;2022-09-13T10:39:18;100503.13;;;19.49;100.00
62418;BME280;48456;54.242;10.280;2022-09-13T10:44:26;100486.66;;;19.76;100.00
62418;BME280;48456;54.242;10.280;2022-09-13T10:46:53;100495.22;;;19.84;100.00
62418;BME280;48456;54.242;10.280;2022-09-13T10:49:36;100493.03;;;19.93;100.00
62418;BME280;48456;54.242;10.280;2022-09-13T10:54:48;100489.25;;;19.97;100.00
62418;BME280;48456;54.242;10.280;2022-09-13T10:59:53;100485.88;;;20.30;100.00
62418;BME280;48456;54.242;10.280;2022-09-13T11:02:26;100482.84;;;21.41;94.55
62418;BME280;48456;54.242;10.280;2022-09-13T11:10:44;100495.22;;;23.87;59.28
62418;BME280;48456;54.242;10.280;2022-09-13T11:23:42;100501.09;;;23.08;61.93
62418;BME280;48456;54.242;10.280;2022-09-13T11:26:26;100502.34;;;21.94;63.43
62418;BME280;48456;54.242;10.280;2022-09-13T11:41:42;100490.19;;;19.96;82.02
62418;BME280;48456;54.242;10.280;2022-09-13T11:46:43;100479.81;;;19.51;91.51
62418;BME280;48456;54.242;10.280;2022-09-13T11:54:36;100483.44;;;20.06;91.42
62418;BME280;48456;54.242;10.280;2022-09-13T11:57:07;100489.41;;;19.94;90.83
62418;BME280;48456;54.242;10.280;2022-09-13T12:02:04;100492.53;;;20.41;90.66
62418;BME280;48456;54.242;10.280;2022-09-13T12:04:39;100481.19;;;20.87;83.58
62418;BME280;48456;54.242;10.280;2022-09-13T12:07:32;100483.63;;;21.59;75.49
62418;BME280;48456;54.242;10.280;2022-09-13T12:10:12;100488.19;;;22.38;69.30
62418;BME280;48456;54.242;10.280;2022-09-13T12:12:42;100472.00;;;23.43;62.84
62418;BME280;48456;54.242;10.280;2022-09-13T12:15:16;100475.38;;;23.46;57.94
62418;BME280;48456;54.242;10.280;2022-09-13T12:17:47;100478.31;;;22.98;63.67
62418;BME280;48456;54.242;10.280;2022-09-13T12:22:44;100475.69;;;21.90;73.60
62418;BME280;48456;54.242;10.280;2022-09-13T12:25:22;100488.41;;;21.38;81.94
62418;BME280;48456;54.242;10.280;2022-09-13T12:27:58;100474.41;;;21.31;91.35
62418;BME280;48456;54.242;10.280;2022-09-13T12:30:32;100490.63;;;21.96;89.12
62418;BME280;48456;54.242;10.280;2022-09-13T12:33:04;100488.69;;;22.44;74.37
62418;BME280;48456;54.242;10.280;2022-09-13T12:35:51;100485.44;;;22.23;74.14
62418;BME280;48456;54.242;10.280;2022-09-13T12:45:55;100500.16;;;20.13;100.00
62418;BME280;48456;54.242;10.280;2022-09-13T12:51:07;100508.41;;;19.31;100.00
62418;BME280;48456;54.242;10.280;2022-09-13T12:56:38;100513.25;;;19.02;100.00
62418;BME280;48456;54.242;10.280;2022-09-13T13:01:34;100501.84;;;21.04;100.00
62418;BME280;48456;54.242;10.280;2022-09-13T13:04:12;100495.47;;;22.05;96.04
62418;BME280;48456;54.242;10.280;2022-09-13T13:07:05;100494.22;;;22.88;75.24
62418;BME280;48456;54.242;10.280;2022-09-13T13:09:35;100493.97;;;23.36;73.51
62418;BME280;48456;54.242;10.280;2022-09-13T13:12:06;100486.16;;;23.61;69.53
62418;BME280;48456;54.242;10.280;2022-09-13T13:19:49;100498.78;;;21.94;92.08
62418;BME280;48456;54.242;10.280;2022-09-13T13:27:46;100478.44;;;21.56;90.19
62418;BME280;48456;54.242;10.280;2022-09-13T13:35:28;100492.44;;;20.77;69.73
62418;BME280;48456;54.242;10.280;2022-09-13T13:38:13;100495.06;;;20.79;78.53
62418;BME280;48456;54.242;10.280;2022-09-13T13:40:39;100496.13;;;21.10;76.27
62418;BME280;48456;54.242;10.280;2022-09-13T13:43:48;100500.97;;;21.03;75.24
62418;BME280;48456;54.242;10.280;2022-09-13T13:45:57;100491.25;;;20.65;79.60
62418;BME280;48456;54.242;10.280;2022-09-13T13:48:40;100500.00;;;20.34;88.32
62418;BME280;48456;54.242;10.280;2022-09-13T13:53:37;100488.13;;;20.03;96.29
62418;BME280;48456;54.242;10.280;2022-09-13T13:56:06;100489.78;;;19.67;99.45
62418;BME280;48456;54.242;10.280;2022-09-13T13:58:36;100483.97;;;19.76;100.00
62418;BME280;48456;54.242;10.280;2022-09-13T14:01:11;100478.97;;;20.24;92.79
62418;BME280;48456;54.242;10.280;2022-09-13T14:09:01;100486.25;;;19.66;94.89
62418;BME280;48456;54.242;10.280;2022-09-13T14:12:32;100489.34;;;19.57;94.22
62418;BME280;48456;54.242;10.280;2022-09-13T14:20:13;100484.56;;;19.64;100.00
62418;BME280;48456;54.242;10.280;2022-09-13T14:22:41;100488.63;;;19.53;100.00
62418;BME280;48456;54.242;10.280;2022-09-13T14:25:14;100485.22;;;19.50;100.00
62418;BME280;48456;54.242;10.280;2022-09-13T14:27:41;100490.59;;;19.30;100.00
62418;BME280;48456;54.242;10.280;2022-09-13T14:30:19;100489.53;;;19.14;100.00
62418;BME280;48456;54.242;10.280;2022-09-13T14:32:51;100491.63;;;19.07;100.00
62418;BME280;48456;54.242;10.280;2022-09-13T14:35:37;100481.81;;;19.06;100.00
62418;BME280;48456;54.242;10.280;2022-09-13T14:40:36;100476.78;;;19.19;100.00
62418;BME280;48456;54.242;10.280;2022-09-13T14:43:15;100471.59;;;19.54;100.00
62418;BME280;48456;54.242;10.280;2022-09-13T14:45:42;100474.28;;;20.10;100.00
62418;BME280;48456;54.242;10.280;2022-09-13T14:48:14;100468.78;;;19.94;98.23
62418;BME280;48456;54.242;10.280;2022-09-13T14:50:53;100470.16;;;19.66;100.00
62418;BME280;48456;54.242;10.280;2022-09-13T14:53:29;100466.25;;;20.10;100.00
62418;BME280;48456;54.242;10.280;2022-09-13T14:58:24;100466.13;;;21.18;90.33
62418;BME280;48456;54.242;10.280;2022-09-13T15:00:57;100467.41;;;21.11;89.10
62418;BME280;48456;54.242;10.280;2022-09-13T15:03:25;100462.88;;;20.42;95.75
62418;BME280;48456;54.242;10.280;2022-09-13T15:05:56;100457.50;;;19.87;100.00
62418;BME280;48456;54.242;10.280;2022-09-13T15:11:02;100464.28;;;19.19;100.00
62418;BME280;48456;54.242;10.280;2022-09-13T15:13:30;100466.56;;;19.08;100.00
62418;BME280;48456;54.242;10.280;2022-09-13T15:15:57;100467.97;;;18.96;100.00
62418;BME280;48456;54.242;10.280;2022-09-13T15:18:25;100466.50;;;18.89;100.00
62418;BME280;48456;54.242;10.280;2022-09-13T15:20:56;100465.84;;;18.83;100.00
62418;BME280;48456;54.242;10.280;2022-09-13T15:23:25;100472.50;;;18.73;100.00
62418;BME280;48456;54.242;10.280;2022-09-13T15:25:54;100468.81;;;18.55;100.00
62418;BME280;48456;54.242;10.280;2022-09-13T15:28:22;100472.84;;;18.44;100.00
62418;BME280;48456;54.242;10.280;2022-09-13T15:30:49;100475.25;;;18.51;100.00
62418;BME280;48456;54.242;10.280;2022-09-13T15:34:08;100471.91;;;18.46;100.00